Time;durP1;ratioP1;P1;durP2;ratioP2;P2;SDS_P1;SDS_P2;PMS_P1;PMS_P2;Temp;Humidity;BMP_temperature;BMP_pressure;BME280_temperature;BME280_humidity;BME280_pressure;Samples;Min_cycle;Max_cycle;Signal;HPM_P1;HPM_P2
2022/08/24 00:01:51;;;;;;;11.20;3.70;;;;;;;23.30;36.50;99572.70;25093;1313;3026891;-63
2022/08/24 00:04:20;;;;;;;17.50;4.60;;;;;;;23.30;36.46;99579.93;25037;1314;3054436;-62
2022/08/24 00:06:49;;;;;;;16.40;3.80;;;;;;;23.28;36.63;99581.44;25079;1313;3026786;-63
2022/08/24 00:09:18;;;;;;;9.20;4.00;;;;;;;23.27;36.56;99581.52;25074;1315;3054876;-65
2022/08/24 00:11:47;;;;;;;10.70;4.50;;;;;;;23.26;36.62;99584.17;25118;1313;3026921;-67
2022/08/24 00:14:17;;;;;;;13.20;4.10;;;;;;;23.27;36.57;99588.95;25067;1315;3052244;-64
2022/08/24 00:16:46;;;;;;;14.70;3.80;;;;;;;23.26;36.43;99587.42;25035;1316;3026604;-64
2022/08/24 00:19:15;;;;;;;10.40;3.90;;;;;;;23.24;36.40;99590.44;25106;1312;3026451;-67
2022/08/24 00:21:44;;;;;;;12.40;3.80;;;;;;;23.24;36.37;99591.47;25070;1319;3052173;-65
2022/08/24 00:24:14;;;;;;;7.30;3.30;;;;;;;23.24;36.55;99591.70;25066;1312;3026316;-69
2022/08/24 00:26:44;;;;;;;11.60;3.60;;;;;;;23.20;36.42;99592.89;25173;1313;3028083;-66
2022/08/24 00:29:14;;;;;;;15.70;4.20;;;;;;;23.17;36.51;99596.29;25050;1315;3048184;-69
2022/08/24 00:31:44;;;;;;;13.90;4.20;;;;;;;23.15;36.80;99597.95;25076;1315;3027339;-67
2022/08/24 00:34:13;;;;;;;18.30;4.30;;;;;;;23.14;36.52;99595.34;25118;1314;3026219;-65
2022/08/24 00:36:42;;;;;;;12.10;3.60;;;;;;;23.14;36.49;99597.63;25015;1314;3047662;-66
2022/08/24 00:39:12;;;;;;;20.80;4.30;;;;;;;23.14;36.49;99595.02;25067;1314;3026552;-66
2022/08/24 00:41:44;;;;;;;13.70;4.00;;;;;;;23.11;36.39;99599.19;25016;1314;3027261;-65
2022/08/24 00:44:14;;;;;;;19.00;3.70;;;;;;;23.11;36.42;99597.64;25115;1314;3027740;-66
2022/08/24 00:46:53;;;;;;;14.90;4.00;;;;;;;23.11;36.30;99602.98;25039;1315;3026384;-68
2022/08/24 00:49:24;;;;;;;17.70;3.50;;;;;;;23.09;36.44;99594.29;24988;1317;3056935;-64
2022/08/24 00:52:02;;;;;;;17.30;4.20;;;;;;;23.04;36.64;99598.49;25092;1314;3026173;-67
2022/08/24 00:54:35;;;;;;;16.00;4.30;;;;;;;23.01;36.74;99600.83;25116;1314;3070958;-64
2022/08/24 00:57:05;;;;;;;17.90;4.30;;;;;;;22.99;36.51;99601.33;25096;1315;3026655;-74
2022/08/24 00:59:56;;;;;;;17.30;4.30;;;;;;;22.95;36.66;99603.81;25068;1316;3026464;-75
2022/08/24 01:02:28;;;;;;;16.50;3.70;;;;;;;22.96;36.51;99601.27;25211;1315;3052400;-72
2022/08/24 01:05:01;;;;;;;14.50;4.00;;;;;;;22.95;36.66;99601.33;25046;1317;3026629;-71
2022/08/24 01:07:31;;;;;;;22.20;3.90;;;;;;;22.93;36.63;99604.98;25044;1316;3026510;-71
2022/08/24 01:10:04;;;;;;;21.50;3.80;;;;;;;22.89;36.74;99610.91;25106;1316;3029806;-70
2022/08/24 01:12:34;;;;;;;11.90;3.60;;;;;;;22.86;36.98;99610.59;25079;1313;3051507;-73
2022/08/24 01:15:05;;;;;;;13.30;4.00;;;;;;;22.83;36.78;99613.88;25105;1318;3026372;-67
2022/08/24 01:20:25;;;;;;;13.70;4.20;;;;;;;22.76;37.10;99617.32;25128;1315;3053388;-72
2022/08/24 01:23:19;;;;;;;12.70;4.10;;;;;;;22.74;36.97;99618.12;25158;1316;3028026;-72
2022/08/24 01:25:48;;;;;;;10.80;3.90;;;;;;;22.70;37.08;99618.39;24938;1317;3056363;-73
2022/08/24 01:28:17;;;;;;;19.70;4.30;;;;;;;22.68;37.16;99622.17;25060;1318;3026524;-74
2022/08/24 01:30:46;;;;;;;23.00;4.20;;;;;;;22.64;37.04;99623.69;25098;1317;3055312;-75
2022/08/24 01:33:24;;;;;;;28.10;4.00;;;;;;;22.63;37.31;99625.82;25055;1316;3028734;-71
2022/08/24 01:35:56;;;;;;;22.70;4.40;;;;;;;22.57;37.24;99633.63;25156;1317;3052012;-76
2022/08/24 01:38:26;;;;;;;11.60;4.10;;;;;;;22.57;37.21;99631.91;25160;1315;3026755;-66
2022/08/24 01:40:57;;;;;;;10.80;3.90;;;;;;;22.58;37.15;99635.07;25071;1317;3027246;-75
2022/08/24 01:43:26;;;;;;;14.30;3.90;;;;;;;22.55;37.13;99636.94;25239;1315;3052490;-74
2022/08/24 01:45:55;;;;;;;13.90;3.90;;;;;;;22.53;36.87;99639.61;25187;1315;3028933;-65
2022/08/24 01:48:23;;;;;;;12.10;4.20;;;;;;;22.55;36.98;99644.84;25110;1317;3049209;-68
2022/08/24 01:50:54;;;;;;;15.10;3.50;;;;;;;22.56;37.08;99645.27;25229;1315;3027415;-70
2022/08/24 01:53:24;;;;;;;14.40;3.70;;;;;;;22.53;36.84;99647.73;25184;1315;3028835;-69
2022/08/24 01:55:53;;;;;;;23.90;4.20;;;;;;;22.52;37.37;99647.98;25088;1318;3028007;-76
2022/08/24 01:58:23;;;;;;;14.40;4.10;;;;;;;22.50;37.11;99645.19;25064;1316;3054506;-72
2022/08/24 02:00:52;;;;;;;15.00;3.70;;;;;;;22.49;37.26;99648.69;25169;1314;3026607;-70
2022/08/24 02:03:22;;;;;;;15.60;4.00;;;;;;;22.47;37.50;99651.52;25095;1315;3026146;-74
2022/08/24 02:05:53;;;;;;;23.90;3.70;;;;;;;22.45;37.30;99655.50;25071;1317;3026516;-75
2022/08/24 02:08:22;;;;;;;20.40;4.50;;;;;;;22.41;37.51;99655.90;25123;1315;3027704;-73
2022/08/24 02:10:53;;;;;;;13.40;4.00;;;;;;;22.44;37.51;99659.52;25161;1315;3027056;-68
2022/08/24 02:13:23;;;;;;;14.20;3.80;;;;;;;22.42;37.41;99659.72;25096;1313;3027677;-75
2022/08/24 02:15:52;;;;;;;22.40;4.40;;;;;;;22.39;37.52;99661.85;24991;1316;3026438;-72
2022/08/24 02:18:21;;;;;;;19.70;3.80;;;;;;;22.32;37.56;99662.26;25040;1317;3053014;-72
2022/08/24 02:20:51;;;;;;;19.80;4.30;;;;;;;22.30;37.94;99661.54;25135;1313;3027013;-73
2022/08/24 02:23:21;;;;;;;23.60;4.30;;;;;;;22.28;37.83;99659.63;25176;1315;3054143;-67
2022/08/24 02:25:50;;;;;;;20.10;4.20;;;;;;;22.28;37.60;99663.54;25157;1314;3030284;-71
2022/08/24 02:28:21;;;;;;;16.60;3.80;;;;;;;22.25;37.96;99663.80;25170;1313;3026531;-73
2022/08/24 02:30:52;;;;;;;20.80;3.80;;;;;;;22.21;37.89;99661.98;25153;1313;3026503;-74
2022/08/24 02:33:22;;;;;;;18.70;4.00;;;;;;;22.17;37.96;99664.91;25060;1318;3027158;-69
2022/08/24 02:35:53;;;;;;;19.40;3.90;;;;;;;22.14;37.89;99669.84;25174;1313;3028662;-70
2022/08/24 02:38:22;;;;;;;15.90;4.20;;;;;;;22.09;38.14;99673.23;25174;1314;3026512;-71
2022/08/24 02:40:51;;;;;;;20.00;4.50;;;;;;;22.07;37.84;99674.09;25076;1315;3027528;-67
2022/08/24 02:43:20;;;;;;;20.90;4.20;;;;;;;22.01;38.24;99674.38;25034;1315;3026113;-76
2022/08/24 02:45:49;;;;;;;16.50;3.80;;;;;;;21.98;38.14;99676.20;25090;1315;3058350;-72
2022/08/24 02:48:19;;;;;;;18.70;3.40;;;;;;;21.94;38.41;99675.89;25188;1314;3026904;-69
2022/08/24 02:50:49;;;;;;;17.60;3.60;;;;;;;21.96;38.36;99679.40;25153;1314;3027472;-71
2022/08/24 02:53:19;;;;;;;12.10;3.40;;;;;;;21.89;38.56;99679.41;25093;1315;3057520;-66
2022/08/24 02:55:48;;;;;;;20.40;4.10;;;;;;;21.84;38.74;99676.72;25094;1316;3029832;-70
2022/08/24 02:58:18;;;;;;;20.50;3.90;;;;;;;21.78;38.97;99679.66;25092;1315;3026320;-69
2022/08/24 03:00:48;;;;;;;18.10;3.20;;;;;;;21.76;39.12;99678.39;25151;1315;3027101;-69
2022/08/24 03:03:21;;;;;;;19.70;3.70;;;;;;;21.74;39.16;99679.30;25113;1316;3028057;-69
2022/08/24 03:05:50;;;;;;;12.70;3.20;;;;;;;21.72;39.32;99679.38;25134;1314;3026116;-74
2022/08/24 03:08:20;;;;;;;23.90;3.30;;;;;;;21.69;39.49;99678.06;25130;1318;3050641;-69
2022/08/24 03:10:50;;;;;;;22.10;4.00;;;;;;;21.68;39.77;99680.15;25087;1315;3026369;-67
2022/08/24 03:13:19;;;;;;;19.90;3.80;;;;;;;21.65;39.91;99680.65;25105;1315;3028850;-71
2022/08/24 03:15:48;;;;;;;32.00;5.10;;;;;;;21.63;39.98;99679.83;25061;1314;3025898;-69
2022/08/24 03:18:18;;;;;;;26.20;3.80;;;;;;;21.59;40.03;99681.29;25111;1315;3071068;-68
2022/08/24 03:20:48;;;;;;;12.70;3.30;;;;;;;21.60;39.56;99682.60;25095;1315;3028200;-68
2022/08/24 03:23:17;;;;;;;21.50;3.90;;;;;;;21.60;39.74;99686.30;25108;1315;3050510;-73
2022/08/24 03:25:46;;;;;;;22.90;3.80;;;;;;;21.56;39.79;99686.35;25150;1313;3027368;-70
2022/08/24 03:28:15;;;;;;;19.40;3.60;;;;;;;21.57;39.81;99686.86;25099;1313;3054709;-71
2022/08/24 03:30:45;;;;;;;13.00;4.00;;;;;;;21.56;39.98;99685.98;25099;1315;3030490;-72
2022/08/24 03:33:14;;;;;;;25.20;4.10;;;;;;;21.55;39.97;99688.95;25038;1315;3027398;-67
2022/08/24 03:35:43;;;;;;;25.70;3.50;;;;;;;21.55;39.60;99686.98;25142;1313;3054088;-69
2022/08/24 03:38:13;;;;;;;20.30;3.40;;;;;;;21.57;39.56;99688.83;25093;1315;3026769;-67
2022/08/24 03:40:43;;;;;;;21.00;4.00;;;;;;;21.58;39.33;99688.13;25123;1315;3026535;-73
2022/08/24 03:43:44;;;;;;;21.80;3.80;;;;;;;21.55;39.62;99691.50;25148;1315;3026224;-70
2022/08/24 03:46:04;;;;;;;15.20;3.50;;;;;;;21.60;39.59;99692.71;25101;1315;3053501;-73
2022/08/24 03:48:35;;;;;;;19.10;3.40;;;;;;;21.61;39.68;99695.83;25159;1315;3026192;-71
2022/08/24 03:51:04;;;;;;;25.00;3.90;;;;;;;21.59;39.93;99695.17;25158;1313;3026774;-73
2022/08/24 03:53:33;;;;;;;21.00;3.30;;;;;;;21.59;39.83;99697.11;25147;1313;3028397;-70
2022/08/24 03:56:03;;;;;;;17.50;3.60;;;;;;;21.63;39.72;99692.63;25131;1314;3026531;-75
2022/08/24 03:58:34;;;;;;;16.10;3.20;;;;;;;21.66;39.78;99699.63;25148;1315;3050556;-70
2022/08/24 04:01:03;;;;;;;20.20;4.00;;;;;;;21.69;39.52;99697.30;25127;1315;3027142;-70
2022/08/24 04:03:37;;;;;;;20.90;4.30;;;;;;;21.67;39.96;99698.48;25056;1318;3026567;-70
2022/08/24 04:06:07;;;;;;;19.40;4.00;;;;;;;21.66;39.79;99703.95;25155;1315;3048904;-73
2022/08/24 04:08:36;;;;;;;21.60;3.90;;;;;;;21.68;40.01;99706.22;25163;1315;3028092;-72
2022/08/24 04:11:12;;;;;;;18.10;3.20;;;;;;;21.71;40.16;99700.77;25154;1313;3028634;-73
2022/08/24 04:13:42;;;;;;;17.00;3.70;;;;;;;21.70;40.09;99704.33;25129;1316;3058761;-70
2022/08/24 04:16:13;;;;;;;15.20;3.40;;;;;;;21.70;40.21;99705.10;25051;1314;3026264;-69
2022/08/24 04:18:43;;;;;;;27.50;3.20;;;;;;;21.72;40.10;99707.58;25065;1317;3028739;-69
2022/08/24 04:21:25;;;;;;;22.40;4.10;;;;;;;21.74;40.31;99711.06;25089;1314;3026607;-69
2022/08/24 04:23:55;;;;;;;16.50;3.70;;;;;;;21.78;40.20;99711.02;25121;1315;3053088;-69
2022/08/24 04:26:26;;;;;;;26.10;3.90;;;;;;;21.83;40.15;99715.92;25061;1316;3026665;-66
2022/08/24 04:28:56;;;;;;;21.50;4.30;;;;;;;21.88;40.08;99716.24;25184;1315;3027144;-69
2022/08/24 04:31:25;;;;;;;21.20;4.00;;;;;;;21.86;40.42;99719.48;25078;1314;3026736;-71
2022/08/24 04:33:54;;;;;;;19.30;4.00;;;;;;;21.93;40.14;99716.20;25111;1315;3055262;-73
2022/08/24 04:36:23;;;;;;;22.90;4.30;;;;;;;21.98;40.58;99715.42;25078;1314;3026651;-71
2022/08/24 04:38:52;;;;;;;20.10;4.00;;;;;;;22.01;40.27;99719.17;25000;1314;3027031;-73
2022/08/24 04:41:42;;;;;;;22.20;4.60;;;;;;;22.01;40.83;99718.98;25079;1317;3056165;-69
2022/08/24 04:44:11;;;;;;;14.40;3.20;;;;;;;22.07;40.49;99720.84;25096;1314;3029049;-69
2022/08/24 04:46:41;;;;;;;15.00;3.40;;;;;;;22.11;40.84;99725.09;25074;1314;3026894;-73
2022/08/24 04:49:11;;;;;;;31.00;5.20;;;;;;;22.13;40.70;99721.05;25097;1317;3027324;-68
2022/08/24 04:51:40;;;;;;;23.10;4.70;;;;;;;22.16;40.40;99722.41;25173;1314;3027349;-71
2022/08/24 04:54:13;;;;;;;17.80;3.50;;;;;;;22.23;40.56;99724.57;25065;1314;3026345;-68
2022/08/24 04:56:42;;;;;;;14.30;3.50;;;;;;;22.29;40.24;99721.61;25117;1315;3027313;-68
2022/08/24 04:59:11;;;;;;;18.40;3.50;;;;;;;22.39;40.29;99727.52;25096;1315;3026689;-71
2022/08/24 05:01:41;;;;;;;18.30;3.60;;;;;;;22.46;40.47;99726.63;25072;1317;3054433;-72
2022/08/24 05:04:10;;;;;;;20.70;4.20;;;;;;;22.52;40.22;99724.77;25092;1315;3027329;-75
2022/08/24 05:06:41;;;;;;;18.70;3.80;;;;;;;22.57;40.25;99722.07;25066;1317;3027692;-74
2022/08/24 05:09:12;;;;;;;20.30;4.50;;;;;;;22.62;39.92;99722.76;25103;1317;3026757;-70
2022/08/24 05:11:41;;;;;;;14.60;3.90;;;;;;;22.71;39.80;99725.52;25145;1315;3026559;-69
2022/08/24 05:14:10;;;;;;;25.70;4.80;;;;;;;22.75;39.86;99721.94;25146;1315;3050761;-73
2022/08/24 05:16:40;;;;;;;18.90;4.50;;;;;;;22.82;39.91;99724.77;25148;1318;3028961;-70
2022/08/24 05:19:11;;;;;;;22.90;4.20;;;;;;;22.91;39.65;99724.08;25131;1312;3027264;-70
2022/08/24 05:21:43;;;;;;;25.70;4.30;;;;;;;22.99;39.36;99726.05;25137;1314;3026693;-69
2022/08/24 05:24:12;;;;;;;21.00;3.20;;;;;;;23.10;39.51;99723.85;25198;1314;3026472;-69
2022/08/24 05:26:41;;;;;;;14.40;3.40;;;;;;;23.17;39.35;99720.56;25083;1315;3026634;-70
2022/08/24 05:29:10;;;;;;;15.10;3.20;;;;;;;23.22;39.35;99724.54;25132;1314;3070241;-71
2022/08/24 05:31:44;;;;;;;21.10;3.30;;;;;;;23.29;39.26;99721.58;25133;1314;3052554;-74
2022/08/24 05:34:14;;;;;;;22.00;3.60;;;;;;;23.36;39.47;99719.93;25095;1314;3029382;-70
2022/08/24 05:36:44;;;;;;;17.90;3.40;;;;;;;23.44;39.55;99722.93;25131;1314;3027459;-72
2022/08/24 05:39:31;;;;;;;25.60;4.00;;;;;;;23.55;39.40;99722.48;25149;1314;3051283;-72
2022/08/24 05:42:06;;;;;;;18.20;4.40;;;;;;;23.63;39.47;99722.13;25170;1314;3055175;-74
2022/08/24 05:44:38;;;;;;;15.90;3.90;;;;;;;23.68;39.48;99722.48;25128;1315;3026881;-70
2022/08/24 05:47:07;;;;;;;23.70;5.00;;;;;;;23.78;39.11;99726.23;25128;1314;3026915;-72
2022/08/24 05:49:36;;;;;;;19.80;3.90;;;;;;;23.85;39.22;99725.04;25085;1314;3054034;-71
2022/08/24 05:52:05;;;;;;;16.90;4.10;;;;;;;23.92;38.78;99726.05;25140;1314;3026220;-74
2022/08/24 05:54:34;;;;;;;19.20;3.90;;;;;;;24.00;38.71;99722.34;25159;1314;3050816;-73
2022/08/24 05:57:05;;;;;;;15.20;3.40;;;;;;;24.12;38.65;99719.96;25126;1314;3026857;-71
2022/08/24 05:59:54;;;;;;;18.80;4.00;;;;;;;24.16;38.67;99719.60;25151;1314;3054799;-73
2022/08/24 06:02:24;;;;;;;28.30;4.00;;;;;;;24.19;38.44;99719.86;25171;1314;3028935;-74
2022/08/24 06:04:54;;;;;;;15.30;4.00;;;;;;;24.27;38.21;99717.27;24999;1317;3026525;-73
2022/08/24 06:07:23;;;;;;;20.30;4.00;;;;;;;24.37;38.18;99719.79;25062;1315;3027594;-71
2022/08/24 06:09:56;;;;;;;18.50;3.70;;;;;;;24.47;37.76;99720.90;25100;1315;3026802;-70
2022/08/24 06:12:26;;;;;;;17.70;3.20;;;;;;;24.53;37.85;99724.52;25135;1315;3026562;-70
2022/08/24 06:14:55;;;;;;;13.80;3.50;;;;;;;24.65;37.47;99723.77;25058;1314;3026631;-69
2022/08/24 06:17:25;;;;;;;13.90;3.70;;;;;;;24.72;37.34;99723.49;25143;1315;3026911;-76
2022/08/24 06:19:54;;;;;;;12.40;3.30;;;;;;;24.82;37.25;99720.12;25194;1314;3026647;-73
2022/08/24 06:22:23;;;;;;;14.90;3.30;;;;;;;24.92;37.14;99725.35;25136;1315;3048431;-70
2022/08/24 06:27:41;;;;;;;15.00;3.60;;;;;;;25.15;37.41;99728.53;25090;1315;3071374;-72
2022/08/24 06:30:10;;;;;;;15.80;3.00;;;;;;;25.22;36.54;99728.33;25105;1314;3026480;-74
2022/08/24 06:32:43;;;;;;;12.90;3.00;;;;;;;25.31;35.58;99726.40;25166;1314;3051951;-73
2022/08/24 06:35:16;;;;;;;16.70;3.00;;;;;;;25.42;35.32;99726.17;25112;1315;3026522;-70
2022/08/24 06:37:45;;;;;;;15.20;2.90;;;;;;;25.52;34.67;99717.14;25186;1315;3028066;-72
2022/08/24 06:40:14;;;;;;;18.70;2.80;;;;;;;25.61;33.68;99716.73;25096;1314;3050607;-71
2022/08/24 06:42:43;;;;;;;16.70;2.80;;;;;;;25.69;33.42;99715.44;25098;1314;3026827;-70
2022/08/24 06:45:23;;;;;;;7.80;2.80;;;;;;;25.80;32.98;99712.39;25108;1314;3055596;-72
2022/08/24 06:47:52;;;;;;;12.90;2.50;;;;;;;25.89;33.10;99709.95;25116;1315;3026616;-72
2022/08/24 06:50:22;;;;;;;10.60;2.50;;;;;;;25.99;32.93;99700.21;25128;1315;3052013;-72
2022/08/24 06:52:51;;;;;;;11.20;2.40;;;;;;;26.09;32.32;99697.72;25140;1314;3026805;-72
2022/08/24 06:55:20;;;;;;;11.30;2.80;;;;;;;26.21;32.32;99694.51;25126;1314;3027137;-69
2022/08/24 06:57:49;;;;;;;10.70;3.20;;;;;;;26.29;31.77;99694.19;25150;1314;3052477;-69
2022/08/24 07:00:19;;;;;;;11.80;2.70;;;;;;;26.39;31.83;99691.55;25124;1314;3026451;-72
2022/08/24 07:02:49;;;;;;;9.60;2.80;;;;;;;26.49;31.82;99691.74;25168;1314;3059185;-76
2022/08/24 07:05:18;;;;;;;17.90;2.60;;;;;;;26.56;31.75;99688.95;25150;1314;3026929;-67
2022/08/24 07:08:10;;;;;;;15.10;2.80;;;;;;;26.70;32.06;99689.55;25171;1314;3051611;-75
2022/08/24 07:10:39;;;;;;;5.00;2.10;;;;;;;26.79;31.94;99689.86;25180;1314;3028959;-73
2022/08/24 07:13:10;;;;;;;12.60;2.30;;;;;;;26.89;31.68;99687.83;25119;1315;3051498;-75
2022/08/24 07:15:41;;;;;;;8.10;2.50;;;;;;;26.98;31.79;99685.89;25177;1315;3026727;-75
2022/08/24 07:18:15;;;;;;;11.80;2.80;;;;;;;27.05;31.18;99688.20;25078;1315;3027337;-74
2022/08/24 07:20:48;;;;;;;;;;;;;;;27.16;31.00;99688.25;25076;1315;3071418;-74
2022/08/24 07:23:28;;;;;;;11.60;2.70;;;;;;;27.23;31.61;99686.77;25142;1314;3049083;-73
2022/08/24 07:26:09;;;;;;;8.20;2.70;;;;;;;27.33;31.21;99683.52;25101;1314;3026239;-72
2022/08/24 07:28:39;;;;;;;12.20;2.70;;;;;;;27.38;31.03;99684.06;25051;1314;3071760;-69
2022/08/24 07:31:12;;;;;;;9.50;2.80;;;;;;;27.49;30.77;99684.06;25094;1314;3026676;-74
2022/08/24 07:33:45;;;;;;;16.30;3.60;;;;;;;27.58;30.69;99678.05;25141;1314;3051680;-70
2022/08/24 07:36:16;;;;;;;6.20;2.30;;;;;;;27.68;31.04;99674.41;25127;1314;3026578;-72
2022/08/24 07:38:45;;;;;;;8.10;3.10;;;;;;;27.80;30.78;99672.10;25099;1314;3026899;-71
2022/08/24 07:41:16;;;;;;;16.80;3.00;;;;;;;27.89;30.52;99675.67;25107;1314;3029303;-73
2022/08/24 07:43:45;;;;;;;10.50;3.20;;;;;;;27.99;30.65;99669.52;25068;1314;3026156;-74
2022/08/24 07:46:15;;;;;;;11.70;3.60;;;;;;;28.09;30.71;99665.38;25106;1315;3027346;-75
2022/08/24 07:48:44;;;;;;;19.20;5.90;;;;;;;28.14;29.96;99664.08;25134;1315;3026569;-73
2022/08/24 07:51:15;;;;;;;12.40;4.80;;;;;;;28.22;29.47;99660.36;25091;1315;3053302;-69
2022/08/24 07:53:45;;;;;;;13.60;4.10;;;;;;;28.24;29.36;99657.90;25114;1317;3026471;-71
2022/08/24 07:56:15;;;;;;;12.30;3.10;;;;;;;28.32;29.26;99656.46;25095;1314;3028433;-69
2022/08/24 07:58:46;;;;;;;11.00;3.30;;;;;;;28.43;28.95;99658.61;25111;1314;3028168;-73
2022/08/24 08:01:16;;;;;;;23.20;3.30;;;;;;;28.42;29.05;99661.05;25105;1317;3026381;-71
2022/08/24 08:03:45;;;;;;;13.00;2.60;;;;;;;28.57;28.89;99659.02;25066;1317;3029375;-77
2022/08/24 08:06:15;;;;;;;10.50;3.00;;;;;;;28.67;28.62;99654.84;25124;1315;3026282;-71
2022/08/24 08:08:45;;;;;;;15.60;2.80;;;;;;;28.76;28.82;99657.14;25057;1313;3026390;-73
2022/08/24 08:11:14;;;;;;;7.30;2.60;;;;;;;28.83;28.69;99649.98;25143;1314;3028585;-74
2022/08/24 08:13:45;;;;;;;7.30;2.60;;;;;;;28.91;28.67;99657.34;25140;1315;3055816;-74
2022/08/24 08:16:14;;;;;;;6.70;2.90;;;;;;;29.00;28.38;99657.63;25165;1315;3029397;-74
2022/08/24 08:18:43;;;;;;;12.90;2.60;;;;;;;29.08;28.37;99654.33;25123;1315;3026483;-72
2022/08/24 08:24:16;;;;;;;9.30;3.10;;;;;;;29.12;27.97;99647.91;25123;1314;3052372;-71
2022/08/24 08:26:53;;;;;;;9.00;3.60;;;;;;;29.21;27.89;99653.19;24434;1315;4596121;-69
2022/08/24 08:29:39;;;;;;;9.40;3.40;;;;;;;29.32;27.80;99650.70;25142;1314;3057627;-73
2022/08/24 08:32:10;;;;;;;20.50;4.00;;;;;;;29.39;27.91;99646.52;25114;1315;3026851;-70
2022/08/24 08:34:40;;;;;;;12.60;4.40;;;;;;;29.44;28.00;99645.42;25191;1316;3026915;-72
2022/08/24 08:37:10;;;;;;;12.00;3.80;;;;;;;29.49;27.52;99641.00;25109;1315;3026953;-74
2022/08/24 08:39:39;;;;;;;15.30;3.60;;;;;;;29.51;26.74;99648.12;25153;1315;3049028;-69
2022/08/24 08:42:21;;;;;;;10.30;3.30;;;;;;;29.54;26.17;99651.27;25151;1315;3026395;-71
2022/08/24 08:45:10;;;;;;;11.90;2.60;;;;;;;29.61;26.18;99650.57;25123;1315;3051108;-72
2022/08/24 08:48:04;;;;;;;16.00;3.10;;;;;;;29.74;26.08;99650.69;25070;1315;3071414;-71
2022/08/24 08:50:50;;;;;;;8.80;2.50;;;;;;;29.83;25.08;99648.98;25124;1315;3051396;-70
2022/08/24 08:53:25;;;;;;;13.10;2.70;;;;;;;29.83;25.22;99646.83;25039;1317;3052908;-70
2022/08/24 08:56:13;;;;;;;11.90;3.40;;;;;;;29.89;24.64;99642.15;25160;1315;3052252;-73
2022/08/24 08:59:02;;;;;;;18.40;2.70;;;;;;;29.94;24.09;99643.55;25156;1315;3059327;-73
2022/08/24 09:02:06;;;;;;;12.90;3.40;;;;;;;30.05;23.81;99639.71;25135;1315;3052050;-73
2022/08/24 09:05:10;;;;;;;14.30;2.50;;;;;;;30.07;23.39;99640.54;25102;1314;3056071;-74
2022/08/24 09:08:20;;;;;;;10.10;2.70;;;;;;;30.16;23.18;99633.42;25146;1315;3054516;-72
2022/08/24 09:11:14;;;;;;;17.30;2.60;;;;;;;30.26;22.81;99635.88;25190;1313;3069680;-73
2022/08/24 09:14:06;;;;;;;8.90;2.60;;;;;;;30.33;23.18;99638.98;25108;1312;3051890;-73
2022/08/24 09:16:47;;;;;;;11.00;2.70;;;;;;;30.50;23.42;99637.41;25205;1312;3053360;-73
2022/08/24 09:19:34;;;;;;;7.20;1.70;;;;;;;30.59;22.98;99636.04;25137;1312;3053406;-72
2022/08/24 09:22:06;;;;;;;19.40;2.20;;;;;;;30.64;22.56;99635.81;25140;1315;3056421;-73
2022/08/24 09:24:54;;;;;;;10.60;2.20;;;;;;;30.69;22.25;99630.30;25093;1312;3026475;-71
2022/08/24 09:27:42;;;;;;;13.90;2.00;;;;;;;30.74;21.09;99629.95;25168;1313;3055836;-71
2022/08/24 09:30:24;;;;;;;8.00;1.80;;;;;;;30.81;20.50;99627.15;25182;1312;3051298;-72
2022/08/24 09:33:14;;;;;;;12.60;1.90;;;;;;;30.87;20.49;99628.46;25166;1313;3068226;-70
2022/08/24 09:35:49;;;;;;;16.20;2.50;;;;;;;30.98;20.30;99624.31;25144;1312;3052036;-74
2022/08/24 09:38:37;;;;;;;11.10;2.00;;;;;;;31.05;20.38;99626.95;25250;1314;3053397;-70
2022/08/24 09:41:34;;;;;;;10.20;2.20;;;;;;;31.20;20.69;99629.73;25180;1314;3053044;-74
2022/08/24 09:44:30;;;;;;;6.50;1.90;;;;;;;31.34;20.49;99627.36;25125;1314;3057057;-74
2022/08/24 09:47:19;;;;;;;9.20;2.30;;;;;;;31.42;19.99;99623.44;25135;1314;3051275;-72
2022/08/24 09:50:23;;;;;;;5.20;1.70;;;;;;;31.45;19.64;99624.28;25208;1315;3055329;-70
2022/08/24 09:53:17;;;;;;;8.30;1.90;;;;;;;31.36;19.26;99620.88;25136;1314;3054860;-75
2022/08/24 09:55:52;;;;;;;;;;;;;;;31.50;19.65;99626.92;25130;1314;3071405;-64
2022/08/24 09:58:28;;;;;;;16.70;2.60;;;;;;;31.53;19.38;99618.88;25133;1314;3048196;-63
2022/08/24 10:01:21;;;;;;;11.20;1.90;;;;;;;31.61;19.06;99623.52;25109;1314;3052092;-62
2022/08/24 10:04:13;;;;;;;8.60;1.90;;;;;;;31.65;19.05;99620.44;25015;1314;3054778;-74
2022/08/24 10:07:07;;;;;;;14.80;2.40;;;;;;;31.72;18.62;99620.75;25228;1315;3058854;-68
2022/08/24 10:09:58;;;;;;;15.50;2.10;;;;;;;31.81;18.41;99621.64;25151;1314;3049567;-64
2022/08/24 10:12:53;;;;;;;9.20;2.00;;;;;;;31.87;18.57;99617.08;25164;1314;3054288;-68
2022/08/24 10:15:46;;;;;;;15.20;2.00;;;;;;;31.92;18.60;99622.76;25074;1314;3054366;-69
2022/08/24 10:18:38;;;;;;;11.10;1.70;;;;;;;31.96;18.55;99623.58;25145;1314;3068703;-66
2022/08/24 10:21:23;;;;;;;13.90;2.00;;;;;;;32.00;18.65;99625.66;25085;1312;3049558;-66
2022/08/24 10:24:43;;;;;;;5.40;1.50;;;;;;;32.10;18.46;99628.84;25183;1313;3054926;-68
2022/08/24 10:27:18;;;;;;;7.70;1.40;;;;;;;32.12;18.39;99622.45;25073;1315;3055403;-69
2022/08/24 10:30:02;;;;;;;5.30;1.50;;;;;;;32.15;18.58;99627.24;25127;1313;3057661;-71
2022/08/24 10:32:50;;;;;;;6.80;1.70;;;;;;;32.38;18.57;99629.77;25140;1312;3049671;-79
2022/08/24 10:35:50;;;;;;;11.30;2.10;;;;;;;32.58;18.59;99632.14;25147;1315;3053401;-73
2022/08/24 10:41:38;;;;;;;12.20;1.80;;;;;;;32.68;18.07;99625.83;25146;1314;3071757;-71
2022/08/24 10:44:31;;;;;;;10.70;1.70;;;;;;;32.71;18.24;99625.03;25122;1314;3049480;-71
2022/08/24 10:47:10;;;;;;;3.30;1.20;;;;;;;32.70;17.65;99621.54;25105;1317;3054751;-73
2022/08/24 10:49:53;;;;;;;3.60;1.40;;;;;;;32.84;17.72;99623.79;25120;1314;3055200;-73
2022/08/24 10:52:22;;;;;;;7.70;1.80;;;;;;;32.87;17.76;99622.27;25087;1314;3055144;-79
2022/08/24 10:54:52;;;;;;;6.10;2.00;;;;;;;32.86;17.74;99622.12;25134;1314;3026954;-72
2022/08/24 10:57:49;;;;;;;8.20;1.50;;;;;;;32.91;17.56;99623.88;25102;1314;3052088;-77
2022/08/24 11:00:21;;;;;;;8.40;1.80;;;;;;;32.99;17.29;99621.67;25127;1315;3059013;-72
2022/08/24 11:03:05;;;;;;;5.90;1.60;;;;;;;33.07;17.24;99615.64;25132;1315;3028846;-72
2022/08/24 11:05:46;;;;;;;8.10;1.50;;;;;;;33.15;16.98;99622.84;25175;1315;3052233;-72
2022/08/24 11:08:18;;;;;;;6.40;2.00;;;;;;;33.16;16.84;99619.05;25061;1315;3054453;-66
2022/08/24 11:11:13;;;;;;;7.50;1.40;;;;;;;33.17;16.79;99614.56;25099;1315;3068543;-68
2022/08/24 11:13:51;;;;;;;8.10;1.50;;;;;;;33.28;16.92;99619.41;25150;1316;3029536;-71
2022/08/24 11:16:26;;;;;;;9.00;1.60;;;;;;;33.33;16.86;99613.89;25123;1314;3055346;-67
2022/08/24 11:19:26;;;;;;;5.50;1.40;;;;;;;33.34;16.71;99604.77;25163;1315;3051607;-70
2022/08/24 11:22:01;;;;;;;9.70;1.80;;;;;;;33.39;16.28;99612.29;25149;1316;3059155;-70
2022/08/24 11:24:38;;;;;;;6.70;1.90;;;;;;;33.48;16.43;99607.13;25070;1315;3050879;-69
2022/08/24 11:27:08;;;;;;;5.90;1.80;;;;;;;33.57;16.49;99610.80;25133;1314;3053047;-75
2022/08/24 11:29:53;;;;;;;4.90;1.70;;;;;;;33.63;16.68;99605.25;25141;1315;3026991;-70
2022/08/24 11:32:29;;;;;;;5.70;1.40;;;;;;;33.66;16.76;99603.69;25171;1315;3071211;-65
2022/08/24 11:35:18;;;;;;;8.20;1.70;;;;;;;33.73;16.58;99608.98;25027;1314;3051859;-68
2022/08/24 11:37:48;;;;;;;7.50;1.80;;;;;;;33.83;16.60;99610.14;25111;1313;3055388;-71
2022/08/24 11:40:19;;;;;;;8.60;1.80;;;;;;;33.96;16.88;99602.91;25111;1315;3028485;-74
2022/08/24 11:43:16;;;;;;;5.30;1.70;;;;;;;34.02;16.28;99605.86;25026;1315;3027617;-67
2022/08/24 11:45:51;;;;;;;9.80;1.80;;;;;;;34.04;15.23;99600.92;25105;1315;3049960;-70
2022/08/24 11:48:52;;;;;;;4.90;1.50;;;;;;;34.06;15.52;99605.65;25180;1315;3056028;-71
2022/08/24 11:51:46;;;;;;;9.80;1.50;;;;;;;34.10;15.68;99597.45;25118;1316;3053823;-66
2022/08/24 11:54:37;;;;;;;4.80;1.60;;;;;;;34.19;14.94;99594.59;25053;1314;3070797;-69
2022/08/24 11:57:08;;;;;;;8.00;1.80;;;;;;;34.14;14.85;99591.52;25124;1314;3049424;-68
2022/08/24 11:59:56;;;;;;;5.90;1.60;;;;;;;34.31;14.79;99594.81;25181;1318;3026820;-73